sensor_id;sensor_type;location;lat;lon;timestamp;P1;durP1;ratioP1;P2;durP2;ratioP2
15192;SDS011;7697;51.630;7.484;2022-07-23T00:04:11;3.92;;;2.92;;
15192;SDS011;7697;51.630;7.484;2022-07-23T00:09:14;3.00;;;2.80;;
15192;SDS011;7697;51.630;7.484;2022-07-23T00:14:15;3.13;;;2.78;;
15192;SDS011;7697;51.630;7.484;2022-07-23T00:19:17;4.63;;;3.45;;
15192;SDS011;7697;51.630;7.484;2022-07-23T00:24:20;4.03;;;3.65;;
15192;SDS011;7697;51.630;7.484;2022-07-23T00:29:22;3.45;;;3.15;;
15192;SDS011;7697;51.630;7.484;2022-07-23T00:34:24;5.57;;;3.42;;
15192;SDS011;7697;51.630;7.484;2022-07-23T00:39:27;6.00;;;3.10;;
15192;SDS011;7697;51.630;7.484;2022-07-23T00:44:29;4.55;;;3.35;;
15192;SDS011;7697;51.630;7.484;2022-07-23T00:49:31;3.92;;;3.03;;
15192;SDS011;7697;51.630;7.484;2022-07-23T00:54:34;2.95;;;2.67;;
15192;SDS011;7697;51.630;7.484;2022-07-23T00:59:38;6.03;;;3.58;;
15192;SDS011;7697;51.630;7.484;2022-07-23T01:04:40;4.45;;;3.40;;
15192;SDS011;7697;51.630;7.484;2022-07-23T01:09:43;3.75;;;3.42;;
15192;SDS011;7697;51.630;7.484;2022-07-23T01:14:45;3.58;;;3.00;;
15192;SDS011;7697;51.630;7.484;2022-07-23T01:19:55;4.05;;;3.65;;
15192;SDS011;7697;51.630;7.484;2022-07-23T01:24:58;5.93;;;3.83;;
15192;SDS011;7697;51.630;7.484;2022-07-23T01:30:00;3.90;;;3.60;;
15192;SDS011;7697;51.630;7.484;2022-07-23T01:35:02;4.38;;;3.97;;
15192;SDS011;7697;51.630;7.484;2022-07-23T01:40:06;4.35;;;3.42;;
15192;SDS011;7697;51.630;7.484;2022-07-23T01:45:08;4.32;;;3.38;;
15192;SDS011;7697;51.630;7.484;2022-07-23T01:50:11;4.03;;;3.28;;
15192;SDS011;7697;51.630;7.484;2022-07-23T01:55:14;3.92;;;3.63;;
15192;SDS011;7697;51.630;7.484;2022-07-23T02:00:16;3.65;;;3.35;;
15192;SDS011;7697;51.630;7.484;2022-07-23T02:05:18;4.18;;;3.88;;
15192;SDS011;7697;51.630;7.484;2022-07-23T02:10:21;5.35;;;4.32;;
15192;SDS011;7697;51.630;7.484;2022-07-23T02:15:23;5.28;;;4.35;;
15192;SDS011;7697;51.630;7.484;2022-07-23T02:20:25;4.07;;;3.67;;
15192;SDS011;7697;51.630;7.484;2022-07-23T02:25:28;4.15;;;3.75;;
15192;SDS011;7697;51.630;7.484;2022-07-23T02:30:30;4.35;;;3.95;;
15192;SDS011;7697;51.630;7.484;2022-07-23T02:35:31;4.90;;;4.50;;
15192;SDS011;7697;51.630;7.484;2022-07-23T02:40:34;5.15;;;4.22;;
15192;SDS011;7697;51.630;7.484;2022-07-23T02:45:36;4.38;;;3.97;;
15192;SDS011;7697;51.630;7.484;2022-07-23T02:50:38;5.68;;;3.72;;
15192;SDS011;7697;51.630;7.484;2022-07-23T02:55:41;4.65;;;4.20;;
15192;SDS011;7697;51.630;7.484;2022-07-23T03:00:43;4.60;;;4.20;;
15192;SDS011;7697;51.630;7.484;2022-07-23T03:05:45;4.50;;;4.10;;
15192;SDS011;7697;51.630;7.484;2022-07-23T03:10:49;5.05;;;4.55;;
15192;SDS011;7697;51.630;7.484;2022-07-23T03:15:51;5.07;;;3.83;;
15192;SDS011;7697;51.630;7.484;2022-07-23T03:20:52;4.85;;;4.20;;
15192;SDS011;7697;51.630;7.484;2022-07-23T03:25:55;4.50;;;4.10;;
15192;SDS011;7697;51.630;7.484;2022-07-23T03:30:57;4.63;;;4.22;;
15192;SDS011;7697;51.630;7.484;2022-07-23T03:35:59;5.35;;;3.85;;
15192;SDS011;7697;51.630;7.484;2022-07-23T03:41:03;5.43;;;3.63;;
15192;SDS011;7697;51.630;7.484;2022-07-23T03:46:04;4.18;;;3.83;;
15192;SDS011;7697;51.630;7.484;2022-07-23T03:51:06;5.25;;;4.47;;
15192;SDS011;7697;51.630;7.484;2022-07-23T03:56:10;5.22;;;4.72;;
15192;SDS011;7697;51.630;7.484;2022-07-23T04:01:12;5.13;;;4.63;;
15192;SDS011;7697;51.630;7.484;2022-07-23T04:06:14;4.70;;;4.25;;
15192;SDS011;7697;51.630;7.484;2022-07-23T04:11:17;6.05;;;4.50;;
15192;SDS011;7697;51.630;7.484;2022-07-23T04:16:18;4.43;;;4.03;;
15192;SDS011;7697;51.630;7.484;2022-07-23T04:21:20;5.10;;;4.60;;
15192;SDS011;7697;51.630;7.484;2022-07-23T04:26:24;4.25;;;3.83;;
15192;SDS011;7697;51.630;7.484;2022-07-23T04:31:25;4.55;;;4.05;;
15192;SDS011;7697;51.630;7.484;2022-07-23T04:36:27;6.38;;;5.03;;
15192;SDS011;7697;51.630;7.484;2022-07-23T04:41:30;5.30;;;4.80;;
15192;SDS011;7697;51.630;7.484;2022-07-23T04:46:32;5.25;;;4.80;;
15192;SDS011;7697;51.630;7.484;2022-07-23T04:51:33;6.07;;;5.47;;
15192;SDS011;7697;51.630;7.484;2022-07-23T04:56:37;5.43;;;4.85;;
15192;SDS011;7697;51.630;7.484;2022-07-23T05:01:38;4.90;;;4.40;;
15192;SDS011;7697;51.630;7.484;2022-07-23T05:06:41;5.20;;;4.55;;
15192;SDS011;7697;51.630;7.484;2022-07-23T05:11:45;4.97;;;4.22;;
15192;SDS011;7697;51.630;7.484;2022-07-23T05:16:46;6.00;;;4.40;;
15192;SDS011;7697;51.630;7.484;2022-07-23T05:21:48;5.15;;;4.30;;
15192;SDS011;7697;51.630;7.484;2022-07-23T05:26:51;4.75;;;4.30;;
15192;SDS011;7697;51.630;7.484;2022-07-23T05:31:53;5.07;;;4.57;;
15192;SDS011;7697;51.630;7.484;2022-07-23T05:36:55;5.20;;;4.70;;
15192;SDS011;7697;51.630;7.484;2022-07-23T05:41:58;5.45;;;4.95;;
15192;SDS011;7697;51.630;7.484;2022-07-23T05:47:00;5.38;;;4.88;;
15192;SDS011;7697;51.630;7.484;2022-07-23T05:52:03;4.43;;;4.07;;
15192;SDS011;7697;51.630;7.484;2022-07-23T05:57:07;6.28;;;4.78;;
15192;SDS011;7697;51.630;7.484;2022-07-23T06:02:09;5.50;;;5.00;;
15192;SDS011;7697;51.630;7.484;2022-07-23T06:07:11;6.05;;;5.55;;
15192;SDS011;7697;51.630;7.484;2022-07-23T06:12:14;6.90;;;6.20;;
15192;SDS011;7697;51.630;7.484;2022-07-23T06:17:15;6.05;;;5.45;;
15192;SDS011;7697;51.630;7.484;2022-07-23T06:22:17;6.45;;;5.50;;
15192;SDS011;7697;51.630;7.484;2022-07-23T06:27:21;5.47;;;4.97;;
15192;SDS011;7697;51.630;7.484;2022-07-23T06:32:22;5.88;;;5.13;;
15192;SDS011;7697;51.630;7.484;2022-07-23T06:37:24;6.03;;;5.50;;
15192;SDS011;7697;51.630;7.484;2022-07-23T06:42:29;7.38;;;6.03;;
15192;SDS011;7697;51.630;7.484;2022-07-23T06:47:31;7.63;;;6.82;;
15192;SDS011;7697;51.630;7.484;2022-07-23T06:52:33;5.68;;;5.18;;
15192;SDS011;7697;51.630;7.484;2022-07-23T06:57:37;6.72;;;6.07;;
15192;SDS011;7697;51.630;7.484;2022-07-23T07:02:38;9.05;;;7.65;;
15192;SDS011;7697;51.630;7.484;2022-07-23T07:07:40;7.82;;;6.80;;
15192;SDS011;7697;51.630;7.484;2022-07-23T07:12:43;7.93;;;7.18;;
15192;SDS011;7697;51.630;7.484;2022-07-23T07:17:45;8.38;;;7.45;;
15192;SDS011;7697;51.630;7.484;2022-07-23T07:22:47;8.93;;;7.22;;
15192;SDS011;7697;51.630;7.484;2022-07-23T07:27:50;11.82;;;10.63;;
15192;SDS011;7697;51.630;7.484;2022-07-23T07:32:52;10.32;;;8.65;;
15192;SDS011;7697;51.630;7.484;2022-07-23T07:37:54;10.70;;;8.50;;
15192;SDS011;7697;51.630;7.484;2022-07-23T07:42:57;11.10;;;9.60;;
15192;SDS011;7697;51.630;7.484;2022-07-23T07:47:59;8.45;;;7.65;;
15192;SDS011;7697;51.630;7.484;2022-07-23T07:53:00;7.45;;;6.75;;
15192;SDS011;7697;51.630;7.484;2022-07-23T07:58:03;7.10;;;6.28;;
15192;SDS011;7697;51.630;7.484;2022-07-23T08:03:05;6.45;;;5.85;;
15192;SDS011;7697;51.630;7.484;2022-07-23T08:08:07;8.23;;;6.68;;
15192;SDS011;7697;51.630;7.484;2022-07-23T08:13:16;6.07;;;5.47;;
15192;SDS011;7697;51.630;7.484;2022-07-23T08:18:18;5.50;;;4.80;;
15192;SDS011;7697;51.630;7.484;2022-07-23T08:23:19;5.53;;;5.00;;
15192;SDS011;7697;51.630;7.484;2022-07-23T08:28:23;5.82;;;5.13;;
15192;SDS011;7697;51.630;7.484;2022-07-23T08:33:24;4.95;;;4.50;;
15192;SDS011;7697;51.630;7.484;2022-07-23T08:38:26;4.10;;;3.67;;
15192;SDS011;7697;51.630;7.484;2022-07-23T08:43:30;4.97;;;3.83;;
15192;SDS011;7697;51.630;7.484;2022-07-23T08:48:34;4.53;;;3.30;;
15192;SDS011;7697;51.630;7.484;2022-07-23T08:53:37;3.80;;;3.25;;
15192;SDS011;7697;51.630;7.484;2022-07-23T08:58:41;3.22;;;2.85;;
15192;SDS011;7697;51.630;7.484;2022-07-23T09:03:43;5.03;;;3.70;;
15192;SDS011;7697;51.630;7.484;2022-07-23T09:08:46;3.72;;;2.92;;
15192;SDS011;7697;51.630;7.484;2022-07-23T09:13:49;3.10;;;2.65;;
15192;SDS011;7697;51.630;7.484;2022-07-23T09:18:53;4.60;;;3.25;;
15192;SDS011;7697;51.630;7.484;2022-07-23T09:23:57;4.47;;;2.67;;
15192;SDS011;7697;51.630;7.484;2022-07-23T09:29:03;2.75;;;2.33;;
15192;SDS011;7697;51.630;7.484;2022-07-23T09:34:11;2.65;;;2.10;;
15192;SDS011;7697;51.630;7.484;2022-07-23T09:39:15;3.85;;;2.65;;
15192;SDS011;7697;51.630;7.484;2022-07-23T09:44:28;2.15;;;1.95;;
15192;SDS011;7697;51.630;7.484;2022-07-23T09:49:31;3.28;;;2.40;;
15192;SDS011;7697;51.630;7.484;2022-07-23T09:54:33;2.38;;;1.95;;
15192;SDS011;7697;51.630;7.484;2022-07-23T09:59:38;2.45;;;2.20;;
15192;SDS011;7697;51.630;7.484;2022-07-23T10:04:40;2.63;;;1.90;;
15192;SDS011;7697;51.630;7.484;2022-07-23T10:09:43;2.58;;;2.10;;
15192;SDS011;7697;51.630;7.484;2022-07-23T10:14:52;2.65;;;2.45;;
15192;SDS011;7697;51.630;7.484;2022-07-23T10:19:54;3.38;;;2.17;;
15192;SDS011;7697;51.630;7.484;2022-07-23T10:24:58;2.35;;;2.15;;
15192;SDS011;7697;51.630;7.484;2022-07-23T10:30:11;3.85;;;2.10;;
15192;SDS011;7697;51.630;7.484;2022-07-23T10:35:19;2.45;;;1.80;;
15192;SDS011;7697;51.630;7.484;2022-07-23T10:40:27;2.63;;;2.03;;
15192;SDS011;7697;51.630;7.484;2022-07-23T10:45:34;2.60;;;2.20;;
15192;SDS011;7697;51.630;7.484;2022-07-23T10:50:36;2.25;;;2.03;;
15192;SDS011;7697;51.630;7.484;2022-07-23T10:55:40;4.10;;;2.33;;
15192;SDS011;7697;51.630;7.484;2022-07-23T11:00:45;2.42;;;1.85;;
15192;SDS011;7697;51.630;7.484;2022-07-23T11:05:46;3.67;;;1.85;;
15192;SDS011;7697;51.630;7.484;2022-07-23T11:10:49;2.63;;;2.10;;
15192;SDS011;7697;51.630;7.484;2022-07-23T11:16:13;1.90;;;1.67;;
15192;SDS011;7697;51.630;7.484;2022-07-23T11:26:49;1.58;;;1.30;;
15192;SDS011;7697;51.630;7.484;2022-07-23T11:31:56;1.63;;;1.50;;
15192;SDS011;7697;51.630;7.484;2022-07-23T11:36:59;2.10;;;1.90;;
15192;SDS011;7697;51.630;7.484;2022-07-23T11:42:02;2.92;;;1.77;;
15192;SDS011;7697;51.630;7.484;2022-07-23T11:47:08;2.38;;;1.52;;
15192;SDS011;7697;51.630;7.484;2022-07-23T11:52:12;1.80;;;1.60;;
15192;SDS011;7697;51.630;7.484;2022-07-23T11:57:16;1.63;;;1.50;;
15192;SDS011;7697;51.630;7.484;2022-07-23T12:02:19;1.17;;;1.08;;
15192;SDS011;7697;51.630;7.484;2022-07-23T12:07:25;2.15;;;1.42;;
15192;SDS011;7697;51.630;7.484;2022-07-23T12:12:29;1.98;;;1.40;;
15192;SDS011;7697;51.630;7.484;2022-07-23T12:17:38;1.30;;;1.20;;
15192;SDS011;7697;51.630;7.484;2022-07-23T12:22:42;1.50;;;1.33;;
15192;SDS011;7697;51.630;7.484;2022-07-23T12:27:45;1.65;;;1.30;;
15192;SDS011;7697;51.630;7.484;2022-07-23T12:32:50;3.08;;;1.48;;
15192;SDS011;7697;51.630;7.484;2022-07-23T12:37:59;2.50;;;1.30;;
15192;SDS011;7697;51.630;7.484;2022-07-23T12:43:03;3.17;;;1.60;;
15192;SDS011;7697;51.630;7.484;2022-07-23T12:48:08;1.90;;;1.60;;
15192;SDS011;7697;51.630;7.484;2022-07-23T12:53:16;2.00;;;1.50;;
15192;SDS011;7697;51.630;7.484;2022-07-23T12:58:20;1.52;;;1.42;;
15192;SDS011;7697;51.630;7.484;2022-07-23T13:03:24;1.50;;;1.40;;
15192;SDS011;7697;51.630;7.484;2022-07-23T13:08:28;1.75;;;1.42;;
15192;SDS011;7697;51.630;7.484;2022-07-23T13:13:32;1.45;;;1.35;;
15192;SDS011;7697;51.630;7.484;2022-07-23T13:18:36;1.50;;;1.40;;
15192;SDS011;7697;51.630;7.484;2022-07-23T13:23:38;1.73;;;1.45;;
15192;SDS011;7697;51.630;7.484;2022-07-23T13:28:39;2.70;;;1.60;;
15192;SDS011;7697;51.630;7.484;2022-07-23T13:33:42;1.50;;;1.35;;
15192;SDS011;7697;51.630;7.484;2022-07-23T13:38:44;2.95;;;1.70;;
15192;SDS011;7697;51.630;7.484;2022-07-23T13:43:46;1.48;;;1.38;;
15192;SDS011;7697;51.630;7.484;2022-07-23T13:48:49;2.10;;;1.60;;
15192;SDS011;7697;51.630;7.484;2022-07-23T13:53:51;2.28;;;1.58;;
15192;SDS011;7697;51.630;7.484;2022-07-23T13:58:52;2.13;;;1.60;;
15192;SDS011;7697;51.630;7.484;2022-07-23T14:03:55;2.00;;;1.67;;
15192;SDS011;7697;51.630;7.484;2022-07-23T14:08:57;2.08;;;1.50;;
15192;SDS011;7697;51.630;7.484;2022-07-23T14:13:59;1.70;;;1.48;;
15192;SDS011;7697;51.630;7.484;2022-07-23T14:19:03;1.92;;;1.70;;
15192;SDS011;7697;51.630;7.484;2022-07-23T14:24:05;2.40;;;1.60;;
15192;SDS011;7697;51.630;7.484;2022-07-23T14:29:07;4.05;;;1.60;;
15192;SDS011;7697;51.630;7.484;2022-07-23T14:34:11;1.88;;;1.60;;
15192;SDS011;7697;51.630;7.484;2022-07-23T14:39:12;1.98;;;1.60;;
15192;SDS011;7697;51.630;7.484;2022-07-23T14:44:14;4.20;;;1.90;;
15192;SDS011;7697;51.630;7.484;2022-07-23T14:49:17;7.00;;;1.73;;
15192;SDS011;7697;51.630;7.484;2022-07-23T14:54:19;2.35;;;1.45;;
15192;SDS011;7697;51.630;7.484;2022-07-23T14:59:21;4.22;;;1.90;;
15192;SDS011;7697;51.630;7.484;2022-07-23T15:04:24;1.70;;;1.60;;
15192;SDS011;7697;51.630;7.484;2022-07-23T15:09:26;1.90;;;1.65;;
15192;SDS011;7697;51.630;7.484;2022-07-23T15:14:28;2.08;;;1.73;;
15192;SDS011;7697;51.630;7.484;2022-07-23T15:19:31;2.45;;;1.80;;
15192;SDS011;7697;51.630;7.484;2022-07-23T15:24:33;2.50;;;1.92;;
15192;SDS011;7697;51.630;7.484;2022-07-23T15:29:34;2.13;;;1.70;;
15192;SDS011;7697;51.630;7.484;2022-07-23T15:34:38;3.17;;;1.75;;
15192;SDS011;7697;51.630;7.484;2022-07-23T15:39:40;2.25;;;1.98;;
15192;SDS011;7697;51.630;7.484;2022-07-23T15:44:42;2.47;;;1.70;;
15192;SDS011;7697;51.630;7.484;2022-07-23T15:49:45;1.70;;;1.60;;
15192;SDS011;7697;51.630;7.484;2022-07-23T15:54:47;2.22;;;2.00;;
15192;SDS011;7697;51.630;7.484;2022-07-23T15:59:49;2.05;;;1.85;;
15192;SDS011;7697;51.630;7.484;2022-07-23T16:04:52;2.00;;;1.85;;
15192;SDS011;7697;51.630;7.484;2022-07-23T16:09:54;2.03;;;1.73;;
15192;SDS011;7697;51.630;7.484;2022-07-23T16:14:56;2.13;;;1.80;;
15192;SDS011;7697;51.630;7.484;2022-07-23T16:19:59;2.05;;;1.85;;
15192;SDS011;7697;51.630;7.484;2022-07-23T16:25:00;3.20;;;1.70;;
15192;SDS011;7697;51.630;7.484;2022-07-23T16:30:03;4.82;;;2.03;;
15192;SDS011;7697;51.630;7.484;2022-07-23T16:35:08;1.98;;;1.80;;
15192;SDS011;7697;51.630;7.484;2022-07-23T16:40:10;2.08;;;1.90;;
15192;SDS011;7697;51.630;7.484;2022-07-23T16:45:12;3.33;;;2.10;;
15192;SDS011;7697;51.630;7.484;2022-07-23T16:50:17;2.30;;;2.10;;
15192;SDS011;7697;51.630;7.484;2022-07-23T16:55:19;3.22;;;2.20;;
15192;SDS011;7697;51.630;7.484;2022-07-23T17:00:21;2.50;;;2.00;;
15192;SDS011;7697;51.630;7.484;2022-07-23T17:05:24;2.20;;;1.77;;
15192;SDS011;7697;51.630;7.484;2022-07-23T17:10:26;1.95;;;1.83;;
15192;SDS011;7697;51.630;7.484;2022-07-23T17:15:28;2.10;;;1.90;;
15192;SDS011;7697;51.630;7.484;2022-07-23T17:20:31;2.25;;;1.90;;
15192;SDS011;7697;51.630;7.484;2022-07-23T17:25:33;1.95;;;1.80;;
15192;SDS011;7697;51.630;7.484;2022-07-23T17:30:34;2.72;;;2.00;;
15192;SDS011;7697;51.630;7.484;2022-07-23T17:35:38;2.08;;;1.88;;
15192;SDS011;7697;51.630;7.484;2022-07-23T17:40:40;2.33;;;1.90;;
15192;SDS011;7697;51.630;7.484;2022-07-23T17:45:42;1.83;;;1.70;;
15192;SDS011;7697;51.630;7.484;2022-07-23T17:50:45;1.98;;;1.70;;
15192;SDS011;7697;51.630;7.484;2022-07-23T17:55:47;2.70;;;2.00;;
15192;SDS011;7697;51.630;7.484;2022-07-23T18:00:49;2.22;;;2.03;;
15192;SDS011;7697;51.630;7.484;2022-07-23T18:05:52;2.00;;;1.70;;
15192;SDS011;7697;51.630;7.484;2022-07-23T18:10:54;2.28;;;2.08;;
15192;SDS011;7697;51.630;7.484;2022-07-23T18:15:56;1.98;;;1.70;;
15192;SDS011;7697;51.630;7.484;2022-07-23T18:21:00;1.90;;;1.60;;
15192;SDS011;7697;51.630;7.484;2022-07-23T18:26:02;2.83;;;1.90;;
15192;SDS011;7697;51.630;7.484;2022-07-23T18:31:04;1.80;;;1.70;;
15192;SDS011;7697;51.630;7.484;2022-07-23T18:36:08;2.00;;;1.80;;
15192;SDS011;7697;51.630;7.484;2022-07-23T18:41:10;2.47;;;1.92;;
15192;SDS011;7697;51.630;7.484;2022-07-23T18:46:11;2.35;;;1.70;;
15192;SDS011;7697;51.630;7.484;2022-07-23T18:51:15;2.78;;;2.10;;
15192;SDS011;7697;51.630;7.484;2022-07-23T18:56:17;2.25;;;2.00;;
15192;SDS011;7697;51.630;7.484;2022-07-23T19:01:18;2.25;;;1.85;;
15192;SDS011;7697;51.630;7.484;2022-07-23T19:06:22;2.38;;;1.73;;
15192;SDS011;7697;51.630;7.484;2022-07-23T19:11:23;1.70;;;1.60;;
15192;SDS011;7697;51.630;7.484;2022-07-23T19:16:26;2.83;;;1.80;;
15192;SDS011;7697;51.630;7.484;2022-07-23T19:21:29;1.83;;;1.63;;
15192;SDS011;7697;51.630;7.484;2022-07-23T19:26:31;3.90;;;1.80;;
15192;SDS011;7697;51.630;7.484;2022-07-23T19:31:32;1.75;;;1.65;;
15192;SDS011;7697;51.630;7.484;2022-07-23T19:36:36;1.77;;;1.60;;
15192;SDS011;7697;51.630;7.484;2022-07-23T19:41:39;2.67;;;2.00;;
15192;SDS011;7697;51.630;7.484;2022-07-23T19:46:42;1.83;;;1.73;;
15192;SDS011;7697;51.630;7.484;2022-07-23T19:51:45;2.15;;;1.80;;
15192;SDS011;7697;51.630;7.484;2022-07-23T19:56:46;2.92;;;1.77;;
15192;SDS011;7697;51.630;7.484;2022-07-23T20:01:48;2.13;;;1.75;;
15192;SDS011;7697;51.630;7.484;2022-07-23T20:06:51;2.30;;;1.80;;
15192;SDS011;7697;51.630;7.484;2022-07-23T20:11:53;3.03;;;1.90;;
15192;SDS011;7697;51.630;7.484;2022-07-23T20:16:55;1.70;;;1.60;;
15192;SDS011;7697;51.630;7.484;2022-07-23T20:21:58;2.40;;;1.88;;
15192;SDS011;7697;51.630;7.484;2022-07-23T20:27:00;1.98;;;1.70;;
15192;SDS011;7697;51.630;7.484;2022-07-23T20:32:03;2.83;;;1.80;;
15192;SDS011;7697;51.630;7.484;2022-07-23T20:37:07;2.00;;;1.80;;
15192;SDS011;7697;51.630;7.484;2022-07-23T20:42:08;2.03;;;1.83;;
15192;SDS011;7697;51.630;7.484;2022-07-23T20:47:10;2.35;;;1.90;;
15192;SDS011;7697;51.630;7.484;2022-07-23T20:52:13;1.95;;;1.70;;
15192;SDS011;7697;51.630;7.484;2022-07-23T20:57:15;2.20;;;1.85;;
15192;SDS011;7697;51.630;7.484;2022-07-23T21:02:17;2.00;;;1.80;;
15192;SDS011;7697;51.630;7.484;2022-07-23T21:07:20;2.40;;;1.90;;
15192;SDS011;7697;51.630;7.484;2022-07-23T21:12:22;2.20;;;2.00;;
15192;SDS011;7697;51.630;7.484;2022-07-23T21:17:25;2.17;;;1.98;;
15192;SDS011;7697;51.630;7.484;2022-07-23T21:22:28;2.42;;;1.75;;
15192;SDS011;7697;51.630;7.484;2022-07-23T21:27:29;2.83;;;1.88;;
15192;SDS011;7697;51.630;7.484;2022-07-23T21:32:31;2.70;;;2.00;;
15192;SDS011;7697;51.630;7.484;2022-07-23T21:37:34;2.25;;;2.05;;
15192;SDS011;7697;51.630;7.484;2022-07-23T21:42:36;2.13;;;1.92;;
15192;SDS011;7697;51.630;7.484;2022-07-23T21:47:38;2.28;;;2.08;;
15192;SDS011;7697;51.630;7.484;2022-07-23T21:52:41;2.05;;;1.88;;
15192;SDS011;7697;51.630;7.484;2022-07-23T21:57:43;2.75;;;2.00;;
15192;SDS011;7697;51.630;7.484;2022-07-23T22:02:45;2.30;;;2.10;;
15192;SDS011;7697;51.630;7.484;2022-07-23T22:07:49;2.13;;;1.85;;
15192;SDS011;7697;51.630;7.484;2022-07-23T22:12:51;2.30;;;2.10;;
15192;SDS011;7697;51.630;7.484;2022-07-23T22:17:53;3.55;;;2.13;;
15192;SDS011;7697;51.630;7.484;2022-07-23T22:22:56;2.45;;;2.25;;
15192;SDS011;7697;51.630;7.484;2022-07-23T22:27:58;2.80;;;2.47;;
15192;SDS011;7697;51.630;7.484;2022-07-23T22:33:00;2.10;;;1.95;;
15192;SDS011;7697;51.630;7.484;2022-07-23T22:38:03;3.78;;;2.40;;
15192;SDS011;7697;51.630;7.484;2022-07-23T22:43:05;2.58;;;2.38;;
15192;SDS011;7697;51.630;7.484;2022-07-23T22:48:06;2.40;;;2.20;;
15192;SDS011;7697;51.630;7.484;2022-07-23T22:53:09;3.80;;;2.53;;
15192;SDS011;7697;51.630;7.484;2022-07-23T22:58:11;2.40;;;2.20;;
15192;SDS011;7697;51.630;7.484;2022-07-23T23:03:13;2.40;;;2.20;;
15192;SDS011;7697;51.630;7.484;2022-07-23T23:08:16;3.28;;;2.60;;
15192;SDS011;7697;51.630;7.484;2022-07-23T23:13:18;2.70;;;2.50;;
15192;SDS011;7697;51.630;7.484;2022-07-23T23:18:20;3.13;;;2.83;;
15192;SDS011;7697;51.630;7.484;2022-07-23T23:23:23;3.30;;;3.00;;
15192;SDS011;7697;51.630;7.484;2022-07-23T23:28:24;2.63;;;2.35;;
15192;SDS011;7697;51.630;7.484;2022-07-23T23:33:26;2.58;;;2.38;;
15192;SDS011;7697;51.630;7.484;2022-07-23T23:38:29;2.90;;;2.70;;
15192;SDS011;7697;51.630;7.484;2022-07-23T23:43:31;2.95;;;2.70;;
15192;SDS011;7697;51.630;7.484;2022-07-23T23:48:33;3.03;;;2.70;;
15192;SDS011;7697;51.630;7.484;2022-07-23T23:53:36;2.60;;;2.40;;
15192;SDS011;7697;51.630;7.484;2022-07-23T23:58:38;2.60;;;2.40;;
